sensor_id;sensor_type;location;lat;lon;timestamp;P1;durP1;ratioP1;P2;durP2;ratioP2
64018;SDS011;66942;52.138;5.216;2023-01-29T00:01:31;28.6;;;26.2;;
64018;SDS011;66942;52.138;5.216;2023-01-29T00:03:08;29.7;;;27.1;;
64018;SDS011;66942;52.138;5.216;2023-01-29T00:04:44;29.2;;;26.7;;
64018;SDS011;66942;52.138;5.216;2023-01-29T00:08:00;29.7;;;27.0;;
64018;SDS011;66942;52.138;5.216;2023-01-29T00:09:37;29.8;;;27.2;;
64018;SDS011;66942;52.138;5.216;2023-01-29T00:11:15;29.8;;;27.2;;
64018;SDS011;66942;52.138;5.216;2023-01-29T00:14:29;30.4;;;27.8;;
64018;SDS011;66942;52.138;5.216;2023-01-29T00:16:05;29.8;;;27.0;;
64018;SDS011;66942;52.138;5.216;2023-01-29T00:17:43;29.5;;;26.9;;
64018;SDS011;66942;52.138;5.216;2023-01-29T00:20:57;30.7;;;28.0;;
64018;SDS011;66942;52.138;5.216;2023-01-29T00:22:34;31.2;;;28.3;;
64018;SDS011;66942;52.138;5.216;2023-01-29T00:24:10;28.6;;;26.2;;
64018;SDS011;66942;52.138;5.216;2023-01-29T00:25:47;31.5;;;28.5;;
64018;SDS011;66942;52.138;5.216;2023-01-29T00:29:01;29.0;;;26.6;;
64018;SDS011;66942;52.138;5.216;2023-01-29T00:30:38;28.3;;;25.9;;
64018;SDS011;66942;52.138;5.216;2023-01-29T00:32:15;29.6;;;26.9;;
64018;SDS011;66942;52.138;5.216;2023-01-29T00:35:29;29.6;;;27.1;;
64018;SDS011;66942;52.138;5.216;2023-01-29T00:37:07;28.3;;;25.7;;
64018;SDS011;66942;52.138;5.216;2023-01-29T00:38:45;29.7;;;26.9;;
64018;SDS011;66942;52.138;5.216;2023-01-29T00:40:22;30.4;;;27.7;;
64018;SDS011;66942;52.138;5.216;2023-01-29T00:46:09;29.8;;;27.1;;
64018;SDS011;66942;52.138;5.216;2023-01-29T00:47:46;28.5;;;25.9;;
64018;SDS011;66942;52.138;5.216;2023-01-29T00:49:23;29.0;;;26.4;;
64018;SDS011;66942;52.138;5.216;2023-01-29T00:51:01;28.2;;;25.8;;
64018;SDS011;66942;52.138;5.216;2023-01-29T00:54:18;28.2;;;25.7;;
64018;SDS011;66942;52.138;5.216;2023-01-29T00:55:54;26.7;;;24.3;;
64018;SDS011;66942;52.138;5.216;2023-01-29T00:57:31;27.0;;;24.6;;
64018;SDS011;66942;52.138;5.216;2023-01-29T00:59:10;27.4;;;25.0;;
64018;SDS011;66942;52.138;5.216;2023-01-29T01:03:29;25.3;;;23.1;;
64018;SDS011;66942;52.138;5.216;2023-01-29T01:05:08;24.1;;;22.0;;
64018;SDS011;66942;52.138;5.216;2023-01-29T01:06:51;26.1;;;23.9;;
64018;SDS011;66942;52.138;5.216;2023-01-29T01:10:56;24.8;;;22.8;;
64018;SDS011;66942;52.138;5.216;2023-01-29T01:12:34;23.8;;;21.8;;
64018;SDS011;66942;52.138;5.216;2023-01-29T01:14:10;24.0;;;22.0;;
64018;SDS011;66942;52.138;5.216;2023-01-29T01:17:24;23.9;;;22.0;;
64018;SDS011;66942;52.138;5.216;2023-01-29T01:19:01;23.7;;;21.7;;
64018;SDS011;66942;52.138;5.216;2023-01-29T01:20:39;23.3;;;21.3;;
64018;SDS011;66942;52.138;5.216;2023-01-29T01:22:16;24.3;;;22.1;;
64018;SDS011;66942;52.138;5.216;2023-01-29T01:25:29;23.3;;;21.4;;
64018;SDS011;66942;52.138;5.216;2023-01-29T01:27:06;23.8;;;21.8;;
64018;SDS011;66942;52.138;5.216;2023-01-29T01:28:43;24.3;;;22.2;;
64018;SDS011;66942;52.138;5.216;2023-01-29T01:31:58;23.6;;;21.6;;
64018;SDS011;66942;52.138;5.216;2023-01-29T01:33:36;25.2;;;23.0;;
64018;SDS011;66942;52.138;5.216;2023-01-29T01:35:14;23.9;;;21.6;;
64018;SDS011;66942;52.138;5.216;2023-01-29T01:36:51;24.0;;;22.1;;
64018;SDS011;66942;52.138;5.216;2023-01-29T01:40:12;23.7;;;21.7;;
64018;SDS011;66942;52.138;5.216;2023-01-29T01:41:53;24.5;;;22.4;;
64018;SDS011;66942;52.138;5.216;2023-01-29T01:43:45;26.0;;;23.7;;
64018;SDS011;66942;52.138;5.216;2023-01-29T01:45:24;24.4;;;22.4;;
64018;SDS011;66942;52.138;5.216;2023-01-29T01:48:41;24.6;;;22.5;;
64018;SDS011;66942;52.138;5.216;2023-01-29T01:50:20;25.1;;;22.9;;
64018;SDS011;66942;52.138;5.216;2023-01-29T01:52:02;24.8;;;22.8;;
64018;SDS011;66942;52.138;5.216;2023-01-29T01:53:40;24.2;;;22.2;;
64018;SDS011;66942;52.138;5.216;2023-01-29T01:57:09;24.4;;;22.3;;
64018;SDS011;66942;52.138;5.216;2023-01-29T01:58:51;24.6;;;22.5;;
64018;SDS011;66942;52.138;5.216;2023-01-29T02:00:32;25.5;;;23.3;;
64018;SDS011;66942;52.138;5.216;2023-01-29T02:10:29;23.9;;;21.8;;
64018;SDS011;66942;52.138;5.216;2023-01-29T02:13:52;23.2;;;21.2;;
64018;SDS011;66942;52.138;5.216;2023-01-29T02:15:29;24.1;;;22.0;;
64018;SDS011;66942;52.138;5.216;2023-01-29T02:17:07;24.2;;;22.2;;
64018;SDS011;66942;52.138;5.216;2023-01-29T02:18:47;24.8;;;22.6;;
64018;SDS011;66942;52.138;5.216;2023-01-29T02:22:05;24.4;;;22.4;;
64018;SDS011;66942;52.138;5.216;2023-01-29T02:24:04;22.6;;;20.7;;
64018;SDS011;66942;52.138;5.216;2023-01-29T02:26:22;23.1;;;21.2;;
64018;SDS011;66942;52.138;5.216;2023-01-29T02:28:23;23.9;;;21.8;;
64018;SDS011;66942;52.138;5.216;2023-01-29T02:30:14;24.2;;;22.2;;
64018;SDS011;66942;52.138;5.216;2023-01-29T02:32:02;23.7;;;21.6;;
64018;SDS011;66942;52.138;5.216;2023-01-29T02:33:52;23.7;;;21.6;;
64018;SDS011;66942;52.138;5.216;2023-01-29T02:35:49;23.7;;;21.8;;
64018;SDS011;66942;52.138;5.216;2023-01-29T02:37:35;23.6;;;21.6;;
64018;SDS011;66942;52.138;5.216;2023-01-29T02:41:05;23.4;;;21.4;;
64018;SDS011;66942;52.138;5.216;2023-01-29T02:42:52;23.1;;;21.2;;
64018;SDS011;66942;52.138;5.216;2023-01-29T02:44:37;24.0;;;22.1;;
64018;SDS011;66942;52.138;5.216;2023-01-29T02:46:19;23.4;;;21.4;;
64018;SDS011;66942;52.138;5.216;2023-01-29T02:48:04;21.6;;;19.8;;
64018;SDS011;66942;52.138;5.216;2023-01-29T02:51:25;23.6;;;21.6;;
64018;SDS011;66942;52.138;5.216;2023-01-29T02:53:12;22.1;;;20.2;;
64018;SDS011;66942;52.138;5.216;2023-01-29T02:54:53;22.5;;;20.6;;
64018;SDS011;66942;52.138;5.216;2023-01-29T02:56:36;24.2;;;22.3;;
64018;SDS011;66942;52.138;5.216;2023-01-29T03:00:06;24.0;;;22.0;;
64018;SDS011;66942;52.138;5.216;2023-01-29T03:01:50;25.3;;;23.2;;
64018;SDS011;66942;52.138;5.216;2023-01-29T03:03:33;23.5;;;21.5;;
64018;SDS011;66942;52.138;5.216;2023-01-29T03:05:17;24.1;;;22.0;;
64018;SDS011;66942;52.138;5.216;2023-01-29T03:07:02;24.9;;;22.7;;
64018;SDS011;66942;52.138;5.216;2023-01-29T03:10:30;24.5;;;22.5;;
64018;SDS011;66942;52.138;5.216;2023-01-29T03:12:18;25.6;;;23.4;;
64018;SDS011;66942;52.138;5.216;2023-01-29T03:14:10;24.5;;;22.5;;
64018;SDS011;66942;52.138;5.216;2023-01-29T03:15:54;26.5;;;24.3;;
64018;SDS011;66942;52.138;5.216;2023-01-29T03:17:40;25.4;;;23.1;;
64018;SDS011;66942;52.138;5.216;2023-01-29T03:19:22;26.5;;;24.2;;
64018;SDS011;66942;52.138;5.216;2023-01-29T03:32:13;29.7;;;27.0;;
64018;SDS011;66942;52.138;5.216;2023-01-29T03:33:57;29.6;;;27.1;;
64018;SDS011;66942;52.138;5.216;2023-01-29T03:35:48;30.8;;;28.1;;
64018;SDS011;66942;52.138;5.216;2023-01-29T03:37:34;28.9;;;26.4;;
64018;SDS011;66942;52.138;5.216;2023-01-29T03:39:15;29.7;;;27.1;;
64018;SDS011;66942;52.138;5.216;2023-01-29T03:40:53;29.7;;;27.1;;
64018;SDS011;66942;52.138;5.216;2023-01-29T03:42:37;30.7;;;28.0;;
64018;SDS011;66942;52.138;5.216;2023-01-29T03:44:28;30.0;;;27.4;;
64018;SDS011;66942;52.138;5.216;2023-01-29T03:48:03;31.9;;;29.1;;
64018;SDS011;66942;52.138;5.216;2023-01-29T03:49:50;30.2;;;27.5;;
64018;SDS011;66942;52.138;5.216;2023-01-29T03:51:36;29.7;;;27.1;;
64018;SDS011;66942;52.138;5.216;2023-01-29T03:53:22;28.4;;;25.9;;
64018;SDS011;66942;52.138;5.216;2023-01-29T03:55:07;31.4;;;28.5;;
64018;SDS011;66942;52.138;5.216;2023-01-29T03:58:36;31.8;;;28.8;;
64018;SDS011;66942;52.138;5.216;2023-01-29T04:00:22;31.1;;;28.3;;
64018;SDS011;66942;52.138;5.216;2023-01-29T04:02:04;31.9;;;28.9;;
64018;SDS011;66942;52.138;5.216;2023-01-29T04:03:46;31.9;;;29.1;;
64018;SDS011;66942;52.138;5.216;2023-01-29T04:05:30;32.9;;;29.9;;
64018;SDS011;66942;52.138;5.216;2023-01-29T04:08:55;34.0;;;31.0;;
64018;SDS011;66942;52.138;5.216;2023-01-29T04:10:38;31.9;;;28.9;;
64018;SDS011;66942;52.138;5.216;2023-01-29T04:12:19;34.9;;;31.7;;
64018;SDS011;66942;52.138;5.216;2023-01-29T04:14:02;35.31;;;32.1;;
64018;SDS011;66942;52.138;5.216;2023-01-29T04:17:26;35.21;;;32.0;;
64018;SDS011;66942;52.138;5.216;2023-01-29T04:19:09;35.4;;;32.21;;
64018;SDS011;66942;52.138;5.216;2023-01-29T04:20:47;35.21;;;31.9;;
64018;SDS011;66942;52.138;5.216;2023-01-29T04:22:25;33.9;;;30.8;;
64018;SDS011;66942;52.138;5.216;2023-01-29T04:24:07;37.4;;;34.0;;
64018;SDS011;66942;52.138;5.216;2023-01-29T04:27:43;35.31;;;32.0;;
64018;SDS011;66942;52.138;5.216;2023-01-29T04:29:34;35.31;;;32.21;;
64018;SDS011;66942;52.138;5.216;2023-01-29T04:31:21;35.81;;;32.6;;
64018;SDS011;66942;52.138;5.216;2023-01-29T04:33:06;35.6;;;32.21;;
64018;SDS011;66942;52.138;5.216;2023-01-29T04:34:58;37.4;;;33.9;;
64018;SDS011;66942;52.138;5.216;2023-01-29T04:38:33;35.5;;;32.21;;
64018;SDS011;66942;52.138;5.216;2023-01-29T04:40:22;34.5;;;31.3;;
64018;SDS011;66942;52.138;5.216;2023-01-29T04:42:09;35.1;;;31.8;;
64018;SDS011;66942;52.138;5.216;2023-01-29T04:43:57;35.81;;;32.5;;
64018;SDS011;66942;52.138;5.216;2023-01-29T04:45:39;35.1;;;31.8;;
64018;SDS011;66942;52.138;5.216;2023-01-29T04:47:32;34.71;;;31.6;;
64018;SDS011;66942;52.138;5.216;2023-01-29T04:49:17;34.5;;;31.3;;
64018;SDS011;66942;52.138;5.216;2023-01-29T04:52:51;33.6;;;30.6;;
64018;SDS011;66942;52.138;5.216;2023-01-29T04:54:41;33.71;;;30.7;;
64018;SDS011;66942;52.138;5.216;2023-01-29T04:57:15;36.0;;;32.5;;
64018;SDS011;66942;52.138;5.216;2023-01-29T04:58:58;32.8;;;29.7;;
64018;SDS011;66942;52.138;5.216;2023-01-29T05:00:42;34.5;;;31.3;;
64018;SDS011;66942;52.138;5.216;2023-01-29T05:02:21;32.1;;;29.1;;
64018;SDS011;66942;52.138;5.216;2023-01-29T05:04:01;32.21;;;29.4;;
64018;SDS011;66942;52.138;5.216;2023-01-29T05:07:23;33.9;;;30.9;;
64018;SDS011;66942;52.138;5.216;2023-01-29T05:09:04;33.8;;;30.6;;
64018;SDS011;66942;52.138;5.216;2023-01-29T05:10:42;31.4;;;28.5;;
64018;SDS011;66942;52.138;5.216;2023-01-29T05:12:20;31.0;;;28.3;;
64018;SDS011;66942;52.138;5.216;2023-01-29T05:15:43;32.71;;;29.6;;
64018;SDS011;66942;52.138;5.216;2023-01-29T05:17:24;32.21;;;29.3;;
64018;SDS011;66942;52.138;5.216;2023-01-29T05:19:02;30.9;;;28.2;;
64018;SDS011;66942;52.138;5.216;2023-01-29T05:20:40;32.8;;;29.9;;
64018;SDS011;66942;52.138;5.216;2023-01-29T05:24:07;31.7;;;28.9;;
64018;SDS011;66942;52.138;5.216;2023-01-29T05:25:45;32.0;;;29.2;;
64018;SDS011;66942;52.138;5.216;2023-01-29T05:28:28;31.1;;;28.3;;
64018;SDS011;66942;52.138;5.216;2023-01-29T05:30:06;33.4;;;30.5;;
64018;SDS011;66942;52.138;5.216;2023-01-29T05:31:45;31.7;;;28.9;;
64018;SDS011;66942;52.138;5.216;2023-01-29T05:33:23;32.71;;;29.8;;
64018;SDS011;66942;52.138;5.216;2023-01-29T05:36:39;32.9;;;30.1;;
64018;SDS011;66942;52.138;5.216;2023-01-29T05:38:16;31.7;;;28.9;;
64018;SDS011;66942;52.138;5.216;2023-01-29T05:39:54;34.0;;;31.0;;
64018;SDS011;66942;52.138;5.216;2023-01-29T05:41:32;31.4;;;28.6;;
64018;SDS011;66942;52.138;5.216;2023-01-29T05:44:52;30.2;;;27.4;;
64018;SDS011;66942;52.138;5.216;2023-01-29T05:46:28;31.4;;;28.6;;
64018;SDS011;66942;52.138;5.216;2023-01-29T05:48:05;31.1;;;28.4;;
64018;SDS011;66942;52.138;5.216;2023-01-29T05:51:19;31.6;;;28.8;;
64018;SDS011;66942;52.138;5.216;2023-01-29T05:52:56;30.9;;;28.1;;
64018;SDS011;66942;52.138;5.216;2023-01-29T05:54:32;29.9;;;27.4;;
64018;SDS011;66942;52.138;5.216;2023-01-29T05:57:45;30.5;;;27.9;;
64018;SDS011;66942;52.138;5.216;2023-01-29T05:59:22;30.8;;;28.0;;
64018;SDS011;66942;52.138;5.216;2023-01-29T06:01:06;30.2;;;27.6;;
64018;SDS011;66942;52.138;5.216;2023-01-29T06:02:44;29.7;;;27.1;;
64018;SDS011;66942;52.138;5.216;2023-01-29T06:05:57;29.9;;;27.3;;
64018;SDS011;66942;52.138;5.216;2023-01-29T06:07:33;29.8;;;27.3;;
64018;SDS011;66942;52.138;5.216;2023-01-29T06:09:10;29.2;;;26.7;;
64018;SDS011;66942;52.138;5.216;2023-01-29T06:12:25;29.6;;;26.9;;
64018;SDS011;66942;52.138;5.216;2023-01-29T06:14:02;28.9;;;26.4;;
64018;SDS011;66942;52.138;5.216;2023-01-29T06:15:39;30.9;;;28.2;;
64018;SDS011;66942;52.138;5.216;2023-01-29T06:17:17;29.2;;;26.6;;
64018;SDS011;66942;52.138;5.216;2023-01-29T06:20:31;29.7;;;27.0;;
64018;SDS011;66942;52.138;5.216;2023-01-29T06:22:08;30.2;;;27.6;;
64018;SDS011;66942;52.138;5.216;2023-01-29T06:23:45;31.3;;;28.6;;
64018;SDS011;66942;52.138;5.216;2023-01-29T06:26:58;30.9;;;28.1;;
64018;SDS011;66942;52.138;5.216;2023-01-29T06:28:34;31.1;;;28.4;;
64018;SDS011;66942;52.138;5.216;2023-01-29T06:30:11;31.4;;;28.6;;
64018;SDS011;66942;52.138;5.216;2023-01-29T06:31:48;33.3;;;30.4;;
64018;SDS011;66942;52.138;5.216;2023-01-29T06:35:01;32.3;;;29.3;;
64018;SDS011;66942;52.138;5.216;2023-01-29T06:36:40;31.9;;;29.0;;
64018;SDS011;66942;52.138;5.216;2023-01-29T06:38:17;33.21;;;30.2;;
64018;SDS011;66942;52.138;5.216;2023-01-29T06:41:30;32.3;;;29.5;;
64018;SDS011;66942;52.138;5.216;2023-01-29T06:43:06;32.21;;;29.3;;
64018;SDS011;66942;52.138;5.216;2023-01-29T06:44:43;32.21;;;29.3;;
64018;SDS011;66942;52.138;5.216;2023-01-29T06:47:57;31.9;;;29.2;;
64018;SDS011;66942;52.138;5.216;2023-01-29T06:49:33;32.9;;;29.6;;
64018;SDS011;66942;52.138;5.216;2023-01-29T06:51:10;32.8;;;30.1;;
64018;SDS011;66942;52.138;5.216;2023-01-29T06:52:47;32.4;;;29.6;;
64018;SDS011;66942;52.138;5.216;2023-01-29T06:55:59;32.6;;;29.7;;
64018;SDS011;66942;52.138;5.216;2023-01-29T06:57:36;34.0;;;30.9;;
64018;SDS011;66942;52.138;5.216;2023-01-29T06:59:13;32.21;;;29.3;;
64018;SDS011;66942;52.138;5.216;2023-01-29T07:02:28;33.1;;;30.2;;
64018;SDS011;66942;52.138;5.216;2023-01-29T07:04:04;32.1;;;29.4;;
64018;SDS011;66942;52.138;5.216;2023-01-29T07:05:41;31.7;;;28.9;;
64018;SDS011;66942;52.138;5.216;2023-01-29T07:07:18;32.5;;;29.7;;
64018;SDS011;66942;52.138;5.216;2023-01-29T07:10:31;33.71;;;30.6;;
64018;SDS011;66942;52.138;5.216;2023-01-29T07:12:08;32.3;;;29.5;;
64018;SDS011;66942;52.138;5.216;2023-01-29T07:13:45;31.9;;;29.0;;
64018;SDS011;66942;52.138;5.216;2023-01-29T07:16:58;32.5;;;29.6;;
64018;SDS011;66942;52.138;5.216;2023-01-29T07:18:36;30.6;;;27.9;;
64018;SDS011;66942;52.138;5.216;2023-01-29T07:20:12;32.6;;;29.7;;
64018;SDS011;66942;52.138;5.216;2023-01-29T07:23:24;31.1;;;28.4;;
64018;SDS011;66942;52.138;5.216;2023-01-29T07:25:01;31.5;;;28.7;;
64018;SDS011;66942;52.138;5.216;2023-01-29T07:26:38;32.8;;;29.9;;
64018;SDS011;66942;52.138;5.216;2023-01-29T07:28:15;31.4;;;28.5;;
64018;SDS011;66942;52.138;5.216;2023-01-29T07:31:29;31.4;;;28.5;;
64018;SDS011;66942;52.138;5.216;2023-01-29T07:33:07;32.21;;;29.4;;
64018;SDS011;66942;52.138;5.216;2023-01-29T07:34:45;31.9;;;29.2;;
64018;SDS011;66942;52.138;5.216;2023-01-29T07:37:59;33.8;;;30.6;;
64018;SDS011;66942;52.138;5.216;2023-01-29T07:39:35;31.6;;;28.9;;
64018;SDS011;66942;52.138;5.216;2023-01-29T07:41:11;32.71;;;29.7;;
64018;SDS011;66942;52.138;5.216;2023-01-29T07:44:25;32.3;;;29.4;;
64018;SDS011;66942;52.138;5.216;2023-01-29T07:46:02;33.3;;;30.1;;
64018;SDS011;66942;52.138;5.216;2023-01-29T07:47:39;30.3;;;27.7;;
64018;SDS011;66942;52.138;5.216;2023-01-29T07:49:15;32.3;;;29.4;;
64018;SDS011;66942;52.138;5.216;2023-01-29T07:52:31;32.1;;;29.2;;
64018;SDS011;66942;52.138;5.216;2023-01-29T07:54:08;31.9;;;28.9;;
64018;SDS011;66942;52.138;5.216;2023-01-29T07:55:45;31.3;;;28.6;;
64018;SDS011;66942;52.138;5.216;2023-01-29T07:58:59;31.1;;;28.4;;
64018;SDS011;66942;52.138;5.216;2023-01-29T08:00:36;31.2;;;28.5;;
64018;SDS011;66942;52.138;5.216;2023-01-29T08:02:13;29.5;;;27.0;;
64018;SDS011;66942;52.138;5.216;2023-01-29T08:03:50;30.4;;;27.8;;
64018;SDS011;66942;52.138;5.216;2023-01-29T08:07:05;30.4;;;27.6;;
64018;SDS011;66942;52.138;5.216;2023-01-29T08:08:42;30.8;;;28.0;;
64018;SDS011;66942;52.138;5.216;2023-01-29T08:10:19;29.8;;;27.1;;
64018;SDS011;66942;52.138;5.216;2023-01-29T08:13:33;29.5;;;26.9;;
64018;SDS011;66942;52.138;5.216;2023-01-29T08:15:10;29.9;;;27.3;;
64018;SDS011;66942;52.138;5.216;2023-01-29T08:16:47;29.5;;;26.9;;
64018;SDS011;66942;52.138;5.216;2023-01-29T08:18:24;29.4;;;26.8;;
64018;SDS011;66942;52.138;5.216;2023-01-29T08:21:39;29.0;;;26.5;;
64018;SDS011;66942;52.138;5.216;2023-01-29T08:23:15;28.7;;;26.2;;
64018;SDS011;66942;52.138;5.216;2023-01-29T08:24:52;28.6;;;26.2;;
64018;SDS011;66942;52.138;5.216;2023-01-29T08:28:05;29.4;;;26.6;;
64018;SDS011;66942;52.138;5.216;2023-01-29T08:29:42;29.0;;;26.4;;
64018;SDS011;66942;52.138;5.216;2023-01-29T08:31:19;28.5;;;25.9;;
64018;SDS011;66942;52.138;5.216;2023-01-29T08:34:33;28.7;;;26.3;;
64018;SDS011;66942;52.138;5.216;2023-01-29T08:36:10;27.5;;;25.1;;
64018;SDS011;66942;52.138;5.216;2023-01-29T08:37:54;28.8;;;26.3;;
64018;SDS011;66942;52.138;5.216;2023-01-29T08:39:31;27.6;;;25.3;;
64018;SDS011;66942;52.138;5.216;2023-01-29T08:42:44;28.5;;;26.1;;
64018;SDS011;66942;52.138;5.216;2023-01-29T08:44:20;28.7;;;26.0;;
64018;SDS011;66942;52.138;5.216;2023-01-29T08:45:58;28.0;;;25.6;;
64018;SDS011;66942;52.138;5.216;2023-01-29T08:49:11;27.0;;;24.6;;
64018;SDS011;66942;52.138;5.216;2023-01-29T08:50:48;27.0;;;24.6;;
64018;SDS011;66942;52.138;5.216;2023-01-29T08:52:24;27.9;;;25.6;;
64018;SDS011;66942;52.138;5.216;2023-01-29T08:54:00;27.5;;;25.1;;
64018;SDS011;66942;52.138;5.216;2023-01-29T08:57:14;28.9;;;26.4;;
64018;SDS011;66942;52.138;5.216;2023-01-29T08:58:52;28.6;;;26.2;;
64018;SDS011;66942;52.138;5.216;2023-01-29T09:00:29;27.4;;;25.0;;
64018;SDS011;66942;52.138;5.216;2023-01-29T09:03:43;27.0;;;24.5;;
64018;SDS011;66942;52.138;5.216;2023-01-29T09:05:19;28.0;;;25.5;;
64018;SDS011;66942;52.138;5.216;2023-01-29T09:06:56;28.9;;;26.2;;
64018;SDS011;66942;52.138;5.216;2023-01-29T09:10:11;29.4;;;26.9;;
64018;SDS011;66942;52.138;5.216;2023-01-29T09:11:48;28.2;;;26.0;;
64018;SDS011;66942;52.138;5.216;2023-01-29T09:13:24;27.8;;;25.4;;
64018;SDS011;66942;52.138;5.216;2023-01-29T09:15:01;29.1;;;26.5;;
64018;SDS011;66942;52.138;5.216;2023-01-29T09:18:15;29.7;;;27.1;;
64018;SDS011;66942;52.138;5.216;2023-01-29T09:19:52;27.0;;;24.7;;
64018;SDS011;66942;52.138;5.216;2023-01-29T09:21:29;27.7;;;25.3;;
64018;SDS011;66942;52.138;5.216;2023-01-29T09:24:44;29.1;;;26.8;;
64018;SDS011;66942;52.138;5.216;2023-01-29T09:26:21;28.6;;;26.0;;
64018;SDS011;66942;52.138;5.216;2023-01-29T09:27:58;29.2;;;26.8;;
64018;SDS011;66942;52.138;5.216;2023-01-29T09:29:35;28.3;;;25.8;;
64018;SDS011;66942;52.138;5.216;2023-01-29T09:32:49;29.2;;;26.8;;
64018;SDS011;66942;52.138;5.216;2023-01-29T09:34:26;28.7;;;26.2;;
64018;SDS011;66942;52.138;5.216;2023-01-29T09:36:02;28.3;;;26.0;;
64018;SDS011;66942;52.138;5.216;2023-01-29T09:39:16;29.6;;;27.1;;
64018;SDS011;66942;52.138;5.216;2023-01-29T09:40:54;28.4;;;25.9;;
64018;SDS011;66942;52.138;5.216;2023-01-29T09:42:42;28.7;;;26.3;;
64018;SDS011;66942;52.138;5.216;2023-01-29T09:44:27;28.7;;;26.3;;
64018;SDS011;66942;52.138;5.216;2023-01-29T09:46:29;29.0;;;26.4;;
64018;SDS011;66942;52.138;5.216;2023-01-29T09:49:50;28.5;;;26.1;;
64018;SDS011;66942;52.138;5.216;2023-01-29T09:51:33;29.0;;;26.6;;
64018;SDS011;66942;52.138;5.216;2023-01-29T09:53:16;30.2;;;27.5;;
64018;SDS011;66942;52.138;5.216;2023-01-29T09:54:58;29.1;;;26.5;;
64018;SDS011;66942;52.138;5.216;2023-01-29T09:58:22;30.2;;;27.5;;
64018;SDS011;66942;52.138;5.216;2023-01-29T10:00:03;29.6;;;27.0;;
64018;SDS011;66942;52.138;5.216;2023-01-29T10:01:43;30.0;;;27.4;;
64018;SDS011;66942;52.138;5.216;2023-01-29T10:03:35;29.2;;;26.7;;
64018;SDS011;66942;52.138;5.216;2023-01-29T10:05:29;28.8;;;26.3;;
64018;SDS011;66942;52.138;5.216;2023-01-29T10:07:31;29.5;;;26.8;;
64018;SDS011;66942;52.138;5.216;2023-01-29T10:09:53;29.2;;;26.8;;
64018;SDS011;66942;52.138;5.216;2023-01-29T10:11:55;30.6;;;27.9;;
64018;SDS011;66942;52.138;5.216;2023-01-29T10:13:47;30.5;;;27.7;;
64018;SDS011;66942;52.138;5.216;2023-01-29T10:15:41;30.1;;;27.5;;
64018;SDS011;66942;52.138;5.216;2023-01-29T10:19:41;30.4;;;27.7;;
64018;SDS011;66942;52.138;5.216;2023-01-29T10:23:01;31.3;;;28.6;;
64018;SDS011;66942;52.138;5.216;2023-01-29T10:24:55;30.1;;;27.3;;
64018;SDS011;66942;52.138;5.216;2023-01-29T10:26:36;31.1;;;28.5;;
64018;SDS011;66942;52.138;5.216;2023-01-29T10:28:17;31.7;;;29.0;;
64018;SDS011;66942;52.138;5.216;2023-01-29T10:31:34;30.8;;;28.2;;
64018;SDS011;66942;52.138;5.216;2023-01-29T10:33:17;31.6;;;28.8;;
64018;SDS011;66942;52.138;5.216;2023-01-29T10:35:05;31.6;;;28.8;;
64018;SDS011;66942;52.138;5.216;2023-01-29T10:36:58;32.4;;;29.3;;
64018;SDS011;66942;52.138;5.216;2023-01-29T10:38:38;32.4;;;29.3;;
64018;SDS011;66942;52.138;5.216;2023-01-29T10:42:01;31.7;;;28.8;;
64018;SDS011;66942;52.138;5.216;2023-01-29T10:43:57;33.6;;;30.4;;
64018;SDS011;66942;52.138;5.216;2023-01-29T10:45:48;33.4;;;30.2;;
64018;SDS011;66942;52.138;5.216;2023-01-29T10:48:10;32.4;;;29.6;;
64018;SDS011;66942;52.138;5.216;2023-01-29T10:50:25;33.1;;;30.1;;
64018;SDS011;66942;52.138;5.216;2023-01-29T10:52:25;32.71;;;29.8;;
64018;SDS011;66942;52.138;5.216;2023-01-29T10:54:19;33.0;;;30.1;;
64018;SDS011;66942;52.138;5.216;2023-01-29T10:56:16;35.0;;;31.9;;
64018;SDS011;66942;52.138;5.216;2023-01-29T10:58:07;33.5;;;30.3;;
64018;SDS011;66942;52.138;5.216;2023-01-29T10:59:58;35.6;;;32.3;;
64018;SDS011;66942;52.138;5.216;2023-01-29T11:01:44;34.0;;;31.0;;
64018;SDS011;66942;52.138;5.216;2023-01-29T11:05:00;35.5;;;32.4;;
64018;SDS011;66942;52.138;5.216;2023-01-29T11:06:37;34.5;;;31.3;;
64018;SDS011;66942;52.138;5.216;2023-01-29T11:08:15;33.71;;;30.6;;
64018;SDS011;66942;52.138;5.216;2023-01-29T11:11:38;35.9;;;32.71;;
64018;SDS011;66942;52.138;5.216;2023-01-29T11:13:28;35.4;;;32.3;;
64018;SDS011;66942;52.138;5.216;2023-01-29T11:15:13;34.6;;;31.5;;
64018;SDS011;66942;52.138;5.216;2023-01-29T11:16:55;35.21;;;32.1;;
64018;SDS011;66942;52.138;5.216;2023-01-29T11:18:47;37.31;;;34.0;;
64018;SDS011;66942;52.138;5.216;2023-01-29T11:20:30;36.1;;;33.0;;
64018;SDS011;66942;52.138;5.216;2023-01-29T11:23:50;35.6;;;32.4;;
64018;SDS011;66942;52.138;5.216;2023-01-29T11:25:39;36.21;;;32.9;;
64018;SDS011;66942;52.138;5.216;2023-01-29T11:27:31;36.21;;;32.9;;
64018;SDS011;66942;52.138;5.216;2023-01-29T11:29:33;35.9;;;32.6;;
64018;SDS011;66942;52.138;5.216;2023-01-29T11:31:20;37.5;;;34.21;;
64018;SDS011;66942;52.138;5.216;2023-01-29T11:33:06;38.0;;;34.81;;
64018;SDS011;66942;52.138;5.216;2023-01-29T11:36:39;38.6;;;35.1;;
64018;SDS011;66942;52.138;5.216;2023-01-29T11:38:17;38.1;;;34.71;;
64018;SDS011;66942;52.138;5.216;2023-01-29T11:40:00;39.81;;;36.21;;
64018;SDS011;66942;52.138;5.216;2023-01-29T11:42:04;39.1;;;35.4;;
64018;SDS011;66942;52.138;5.216;2023-01-29T11:43:40;39.1;;;35.81;;
64018;SDS011;66942;52.138;5.216;2023-01-29T11:47:10;40.31;;;36.81;;
64018;SDS011;66942;52.138;5.216;2023-01-29T11:48:55;39.9;;;36.4;;
64018;SDS011;66942;52.138;5.216;2023-01-29T11:50:32;39.21;;;35.81;;
64018;SDS011;66942;52.138;5.216;2023-01-29T11:52:09;41.1;;;37.1;;
64018;SDS011;66942;52.138;5.216;2023-01-29T11:55:32;42.2;;;38.4;;
64018;SDS011;66942;52.138;5.216;2023-01-29T11:57:18;42.0;;;38.1;;
64018;SDS011;66942;52.138;5.216;2023-01-29T11:59:13;40.5;;;36.9;;
64018;SDS011;66942;52.138;5.216;2023-01-29T12:01:07;41.4;;;37.6;;
64018;SDS011;66942;52.138;5.216;2023-01-29T12:02:46;39.71;;;36.31;;
64018;SDS011;66942;52.138;5.216;2023-01-29T12:04:28;42.0;;;38.31;;
64018;SDS011;66942;52.138;5.216;2023-01-29T12:07:53;42.3;;;38.4;;
64018;SDS011;66942;52.138;5.216;2023-01-29T12:09:33;42.0;;;38.21;;
64018;SDS011;66942;52.138;5.216;2023-01-29T12:11:12;43.8;;;40.0;;
64018;SDS011;66942;52.138;5.216;2023-01-29T12:13:03;41.1;;;37.21;;
64018;SDS011;66942;52.138;5.216;2023-01-29T12:15:03;42.0;;;38.21;;
64018;SDS011;66942;52.138;5.216;2023-01-29T12:17:12;41.7;;;37.9;;
64018;SDS011;66942;52.138;5.216;2023-01-29T12:20:44;42.2;;;38.4;;
64018;SDS011;66942;52.138;5.216;2023-01-29T12:22:36;42.0;;;38.1;;
64018;SDS011;66942;52.138;5.216;2023-01-29T12:24:23;42.5;;;38.4;;
64018;SDS011;66942;52.138;5.216;2023-01-29T12:26:10;49.6;;;44.9;;
64018;SDS011;66942;52.138;5.216;2023-01-29T12:27:52;42.4;;;38.5;;
64018;SDS011;66942;52.138;5.216;2023-01-29T12:29:36;41.1;;;37.31;;
64018;SDS011;66942;52.138;5.216;2023-01-29T12:33:11;43.0;;;39.0;;
64018;SDS011;66942;52.138;5.216;2023-01-29T12:35:00;42.8;;;39.0;;
64018;SDS011;66942;52.138;5.216;2023-01-29T12:36:43;42.3;;;38.5;;
64018;SDS011;66942;52.138;5.216;2023-01-29T12:38:26;41.5;;;37.6;;
64018;SDS011;66942;52.138;5.216;2023-01-29T12:40:09;42.2;;;38.31;;
64018;SDS011;66942;52.138;5.216;2023-01-29T12:43:32;42.4;;;38.5;;
64018;SDS011;66942;52.138;5.216;2023-01-29T12:45:15;40.9;;;37.31;;
64018;SDS011;66942;52.138;5.216;2023-01-29T12:46:54;42.5;;;38.71;;
64018;SDS011;66942;52.138;5.216;2023-01-29T12:48:37;43.3;;;39.31;;
64018;SDS011;66942;52.138;5.216;2023-01-29T12:51:59;42.8;;;38.81;;
64018;SDS011;66942;52.138;5.216;2023-01-29T12:53:44;41.2;;;37.5;;
64018;SDS011;66942;52.138;5.216;2023-01-29T12:55:28;42.6;;;38.9;;
64018;SDS011;66942;52.138;5.216;2023-01-29T12:57:17;41.4;;;37.71;;